< < Back
Terminal Aerodrome Forecast


Current Version              Previous Versions:   1  2  3  4  5  6  7  8  9  

Terminal Aerodrome Forecast

360
FTUS42 KGSP 302332
TAFAND
TAF
KAND 302332Z 0100/0124 22009KT P6SM BKN120
     FM010300 22006KT P6SM BKN250
     FM010800 25005KT 5SM BR SCT250
     FM011300 25006KT P6SM FEW250
     FM011700 25010G18KT P6SM SCT050
     FM012000 25012G21KT P6SM BKN060 PROB30 0120/0124 4SM TSRA
      BKN040CB=



Latest METAR

400
SAUS70 KWBC 011200 RRX
MTRAND
METAR KAND 011156Z AUTO 28005KT 10SM CLR 22/20 A3000 RMK AO2 SLP148
70070 T02170200 10222 20200 51008


USA.gov is the U.S. government's official web portal to all federal, state and local government web resources and services.